createdAt,value
2022-11-01T00:00:08.023Z,9.56
2022-11-01T00:05:14.368Z,9.61
2022-11-01T00:15:22.594Z,9.69
2022-11-01T00:20:24.119Z,9.71
2022-11-01T00:25:25.654Z,9.83
2022-11-01T00:30:27.234Z,9.96
2022-11-01T00:35:29.083Z,10.07
2022-11-01T00:40:30.753Z,10.12
2022-11-01T00:45:32.353Z,10.18
2022-11-01T00:50:33.895Z,10.23
2022-11-01T00:55:35.432Z,10.24
2022-11-01T01:00:37.154Z,10.20
2022-11-01T01:05:38.710Z,10.15
2022-11-01T01:10:40.369Z,10.17
2022-11-01T01:15:42.175Z,10.18
2022-11-01T01:20:43.971Z,10.25
2022-11-01T01:25:45.516Z,10.29
2022-11-01T01:30:47.061Z,10.30
2022-11-01T01:35:48.616Z,10.28
2022-11-01T01:40:50.152Z,10.30
2022-11-01T01:45:51.682Z,10.41
2022-11-01T01:50:57.155Z,10.56
2022-11-01T01:56:04.783Z,10.61
2022-11-01T02:01:06.803Z,10.65
2022-11-01T02:06:14.583Z,10.70
2022-11-01T02:11:17.730Z,10.77
2022-11-01T02:16:24.797Z,10.82
2022-11-01T02:21:55.440Z,10.82
2022-11-01T02:27:08.406Z,10.88
2022-11-01T02:32:19.119Z,10.99
2022-11-01T02:37:34.693Z,11.03
2022-11-01T02:42:43.828Z,10.99
2022-11-01T02:47:45.493Z,11.00
2022-11-01T02:52:47.828Z,11.03
2022-11-01T02:57:49.450Z,11.09
2022-11-01T03:02:55.390Z,11.14
2022-11-01T03:08:05.219Z,11.08
2022-11-01T03:13:32.580Z,11.01
2022-11-01T03:18:39.562Z,10.96
2022-11-01T03:23:55.939Z,10.98
2022-11-01T03:29:02.858Z,10.98
2022-11-01T03:34:11.131Z,10.97
2022-11-01T03:39:22.421Z,10.91
2022-11-01T03:44:25.816Z,10.98
2022-11-01T03:49:27.378Z,11.03
2022-11-01T03:54:29.259Z,11.01
2022-11-01T03:59:30.859Z,11.05
2022-11-01T04:04:32.394Z,11.11
2022-11-01T04:09:33.923Z,11.15
2022-11-01T04:14:54.140Z,11.16
2022-11-01T04:20:14.465Z,11.09
2022-11-01T04:25:16.129Z,11.06
2022-11-01T04:30:20.328Z,11.08
2022-11-01T04:35:23.005Z,11.07
2022-11-01T04:40:25.499Z,11.09
2022-11-01T04:45:27.092Z,11.15
2022-11-01T04:50:28.988Z,11.17
2022-11-01T04:55:30.896Z,11.20
2022-11-01T05:00:33.446Z,11.21
2022-11-01T05:05:35.695Z,11.27
2022-11-01T05:10:40.966Z,11.25
2022-11-01T05:15:59.272Z,11.23
2022-11-01T05:21:04.106Z,11.21
2022-11-01T05:26:06.017Z,11.20
2022-11-01T05:31:07.592Z,11.17
2022-11-01T05:36:09.386Z,11.16
2022-11-01T05:46:19.663Z,11.45
2022-11-01T05:51:21.352Z,11.61
2022-11-01T05:56:22.930Z,11.70
2022-11-01T06:01:24.753Z,11.81
2022-11-01T06:06:26.318Z,11.87
2022-11-01T06:11:27.876Z,11.91
2022-11-01T06:16:29.473Z,12.00
2022-11-01T06:21:31.024Z,12.13
2022-11-01T06:26:32.575Z,12.23
2022-11-01T06:31:34.132Z,12.33
2022-11-01T06:36:35.694Z,12.41
2022-11-01T06:41:37.240Z,12.48
2022-11-01T06:46:38.877Z,12.57
2022-11-01T06:51:40.415Z,12.66
2022-11-01T06:56:42.010Z,12.76
2022-11-01T07:01:44.306Z,12.80
2022-11-01T07:06:46.127Z,12.80
2022-11-01T07:11:47.687Z,12.80
2022-11-01T07:16:49.308Z,12.82
2022-11-01T07:21:50.862Z,12.91
2022-11-01T07:26:52.498Z,13.02
2022-11-01T07:31:54.059Z,13.17
2022-11-01T07:36:55.574Z,13.36
2022-11-01T07:42:03.874Z,13.57
2022-11-01T07:47:05.431Z,13.78
2022-11-01T07:52:06.983Z,13.97
2022-11-01T07:57:09.279Z,14.17
2022-11-01T08:02:10.949Z,14.35
2022-11-01T08:07:12.629Z,14.55
2022-11-01T08:12:14.160Z,14.78
2022-11-01T08:17:15.681Z,14.95
2022-11-01T08:22:17.221Z,15.08
2022-11-01T08:27:18.777Z,15.26
2022-11-01T08:32:23.088Z,15.42
2022-11-01T08:37:26.994Z,15.65
2022-11-01T08:42:28.539Z,15.82
2022-11-01T08:47:30.082Z,15.97
2022-11-01T08:52:31.767Z,16.10
2022-11-01T08:57:33.831Z,16.15
2022-11-01T09:02:35.532Z,16.16
2022-11-01T09:07:38.091Z,16.21
2022-11-01T09:17:42.280Z,16.49
2022-11-01T09:22:43.852Z,16.59
2022-11-01T09:27:45.382Z,16.64
2022-11-01T09:32:46.962Z,16.79
2022-11-01T09:37:48.496Z,16.81
2022-11-01T09:42:50.470Z,16.89
2022-11-01T09:47:54.622Z,17.00
2022-11-01T09:52:57.340Z,17.24
2022-11-01T09:58:06.778Z,17.31
2022-11-01T10:03:45.350Z,16.90
2022-11-01T10:09:24.439Z,16.33
2022-11-01T10:14:49.928Z,15.98
2022-11-01T10:19:51.505Z,15.75
2022-11-01T10:24:59.122Z,15.72
2022-11-01T10:30:14.262Z,15.72
2022-11-01T10:35:21.468Z,15.77
2022-11-01T10:40:35.535Z,15.56
2022-11-01T10:45:37.747Z,15.37
2022-11-01T10:50:39.422Z,15.35
2022-11-01T10:55:58.897Z,15.10
2022-11-01T11:01:07.102Z,15.01
2022-11-01T11:06:11.942Z,15.04
2022-11-01T11:11:18.605Z,15.19
2022-11-01T11:16:33.351Z,15.51
2022-11-01T11:21:35.804Z,15.72
2022-11-01T11:26:39.248Z,15.72
2022-11-01T11:31:41.754Z,15.94
2022-11-01T11:36:46.749Z,16.43
2022-11-01T11:41:48.313Z,16.59
2022-11-01T11:46:58.954Z,16.71
2022-11-01T11:52:00.531Z,16.64
2022-11-01T11:57:24.906Z,16.36
2022-11-01T12:02:47.896Z,16.43
2022-11-01T12:07:51.935Z,16.63
2022-11-01T12:12:54.436Z,16.77
2022-11-01T12:17:56.568Z,16.91
2022-11-01T12:23:11.499Z,16.98
2022-11-01T12:28:22.198Z,17.07
2022-11-01T12:33:30.674Z,17.11
2022-11-01T12:38:47.147Z,17.17
2022-11-01T12:44:05.762Z,16.77
2022-11-01T12:49:37.804Z,16.23
2022-11-01T12:55:01.983Z,16.21
2022-11-01T13:00:07.692Z,16.21
2022-11-01T13:06:01.831Z,16.34
2022-11-01T13:11:18.356Z,16.31
2022-11-01T13:16:28.935Z,16.19
2022-11-01T13:21:44.421Z,16.34
2022-11-01T13:26:59.959Z,16.38
2022-11-01T13:32:15.864Z,16.34
2022-11-01T13:37:25.463Z,16.16
2022-11-01T13:42:36.763Z,16.03
2022-11-01T13:48:07.051Z,16.15
2022-11-01T13:53:23.490Z,16.34
2022-11-01T13:58:25.946Z,16.36
2022-11-01T14:03:34.998Z,16.06
2022-11-01T14:08:42.145Z,15.69
2022-11-01T14:13:47.763Z,15.41
2022-11-01T14:19:02.663Z,15.20
2022-11-01T14:24:22.243Z,15.06
2022-11-01T14:29:23.913Z,14.96
2022-11-01T14:34:31.983Z,14.89
2022-11-01T14:39:44.696Z,14.80
2022-11-01T14:44:51.435Z,14.73
2022-11-01T14:49:57.998Z,14.67
2022-11-01T14:55:10.302Z,14.57
2022-11-01T15:00:29.779Z,14.42
2022-11-01T15:05:53.735Z,14.28
2022-11-01T15:10:57.412Z,14.12
2022-11-01T15:16:16.605Z,13.94
2022-11-01T15:21:24.177Z,13.79
2022-11-01T15:26:32.783Z,13.63
2022-11-01T15:31:35.744Z,13.45
2022-11-01T15:36:39.324Z,13.25
2022-11-01T15:41:40.935Z,13.08
2022-11-01T15:46:43.304Z,12.91
2022-11-01T15:51:59.979Z,12.77
2022-11-01T15:57:09.495Z,12.59
2022-11-01T16:02:22.596Z,12.37
2022-11-01T16:07:26.442Z,12.09
2022-11-01T16:12:32.082Z,11.85
2022-11-01T16:17:39.997Z,11.58
2022-11-01T16:22:41.521Z,11.29
2022-11-01T16:27:54.635Z,11.02
2022-11-01T16:33:12.344Z,10.78
2022-11-01T16:38:43.493Z,10.59
2022-11-01T16:43:45.352Z,10.41
2022-11-01T16:48:51.926Z,10.21
2022-11-01T16:53:55.095Z,9.99
2022-11-01T16:59:00.081Z,9.79
2022-11-01T17:04:02.272Z,9.64
2022-11-01T17:09:03.980Z,9.52
2022-11-01T17:14:05.686Z,9.32
2022-11-01T17:19:07.896Z,9.15
2022-11-01T17:24:09.892Z,8.98
2022-11-01T17:29:14.578Z,8.82
2022-11-01T17:34:16.479Z,8.71
2022-11-01T17:39:18.252Z,8.62
2022-11-01T17:44:19.780Z,8.50
2022-11-01T17:49:23.687Z,8.39
2022-11-01T17:59:28.619Z,8.20
2022-11-01T18:04:35.516Z,8.10
2022-11-01T18:09:39.384Z,8.09
2022-11-01T18:14:46.786Z,7.97
2022-11-01T18:19:57.395Z,7.86
2022-11-01T18:25:18.137Z,7.73
2022-11-01T18:30:20.719Z,7.62
2022-11-01T18:35:47.092Z,7.58
2022-11-01T18:41:02.987Z,7.53
2022-11-01T18:46:29.125Z,7.54
2022-11-01T18:51:33.438Z,7.48
2022-11-01T18:56:39.503Z,7.54
2022-11-01T19:01:41.148Z,7.67
2022-11-01T19:06:42.924Z,7.79
2022-11-01T19:11:44.538Z,7.72
2022-11-01T19:16:46.161Z,7.61
2022-11-01T19:21:47.742Z,7.44
2022-11-01T19:26:49.352Z,7.24
2022-11-01T19:31:55.028Z,7.08
2022-11-01T19:37:02.409Z,7.04
2022-11-01T19:42:18.405Z,7.08
2022-11-01T19:47:29.991Z,7.18
2022-11-01T19:52:37.727Z,7.22
2022-11-01T19:57:42.333Z,7.21
2022-11-01T20:02:48.817Z,7.03
2022-11-01T20:07:50.852Z,6.77
2022-11-01T20:12:52.387Z,6.61
2022-11-01T20:17:54.425Z,6.48
2022-11-01T20:23:20.503Z,6.39
2022-11-01T20:28:18.116Z,6.33
2022-11-01T20:33:19.682Z,6.27
2022-11-01T20:38:21.305Z,6.20
2022-11-01T20:43:23.951Z,6.16
2022-11-01T20:48:25.902Z,6.10
2022-11-01T20:53:29.822Z,6.03
2022-11-01T20:58:31.537Z,6.03
2022-11-01T21:03:34.022Z,6.07
2022-11-01T21:08:36.702Z,5.98
2022-11-01T21:13:45.685Z,5.90
2022-11-01T21:18:47.316Z,5.85
2022-11-01T21:23:49.032Z,5.74
2022-11-01T21:28:55.767Z,5.64
2022-11-01T21:34:10.060Z,5.61
2022-11-01T21:39:18.599Z,5.53
2022-11-01T21:44:22.898Z,5.48
2022-11-01T21:49:32.248Z,5.44
2022-11-01T21:54:36.088Z,5.36
2022-11-01T21:59:37.732Z,5.27
2022-11-01T22:04:39.806Z,5.19
2022-11-01T22:09:41.353Z,5.15
2022-11-01T22:14:42.891Z,5.13
2022-11-01T22:19:44.423Z,5.12
2022-11-01T22:24:46.022Z,5.05
2022-11-01T22:29:47.619Z,5.06
2022-11-01T22:34:49.175Z,5.08
2022-11-01T22:39:53.077Z,5.03
2022-11-01T22:44:55.457Z,5.00
2022-11-01T22:50:02.831Z,4.94
2022-11-01T22:55:10.293Z,4.90
2022-11-01T23:00:34.776Z,4.86
2022-11-01T23:05:37.054Z,4.88
2022-11-01T23:10:38.579Z,4.96
2022-11-01T23:15:40.172Z,5.01
2022-11-01T23:20:42.924Z,5.12
2022-11-01T23:25:44.766Z,5.25
2022-11-01T23:30:48.011Z,5.21
2022-11-01T23:35:54.672Z,5.21
2022-11-01T23:40:57.470Z,5.35
2022-11-01T23:45:59.563Z,5.64
2022-11-01T23:51:01.256Z,5.95
2022-11-01T23:56:06.915Z,6.32
